sensor_id;sensor_type;location;lat;lon;timestamp;pressure;altitude;pressure_sealevel;temperature;humidity
20710;BME280;10516;51.518;9.864;2024-03-06T00:01:31;98954.59;;;6.45;88.10
20710;BME280;10516;51.518;9.864;2024-03-06T00:03:57;98959.25;;;6.49;88.45
20710;BME280;10516;51.518;9.864;2024-03-06T00:06:23;98954.00;;;6.43;87.74
20710;BME280;10516;51.518;9.864;2024-03-06T00:08:49;98956.50;;;6.38;88.25
20710;BME280;10516;51.518;9.864;2024-03-06T00:11:15;98970.97;;;6.42;88.18
20710;BME280;10516;51.518;9.864;2024-03-06T00:13:40;98965.00;;;6.46;87.28
20710;BME280;10516;51.518;9.864;2024-03-06T00:16:06;98976.56;;;6.52;88.26
20710;BME280;10516;51.518;9.864;2024-03-06T00:18:31;98975.56;;;6.53;88.35
20710;BME280;10516;51.518;9.864;2024-03-06T00:20:56;98971.38;;;6.39;88.80
20710;BME280;10516;51.518;9.864;2024-03-06T00:23:22;98968.91;;;6.44;88.37
20710;BME280;10516;51.518;9.864;2024-03-06T00:25:47;98973.78;;;6.22;88.58
20710;BME280;10516;51.518;9.864;2024-03-06T00:28:12;98977.63;;;6.26;88.46
20710;BME280;10516;51.518;9.864;2024-03-06T00:30:38;98984.59;;;6.21;87.98
20710;BME280;10516;51.518;9.864;2024-03-06T00:33:03;98987.59;;;6.31;88.75
20710;BME280;10516;51.518;9.864;2024-03-06T00:35:29;98986.59;;;6.25;88.82
20710;BME280;10516;51.518;9.864;2024-03-06T00:37:54;98977.88;;;6.43;88.46
20710;BME280;10516;51.518;9.864;2024-03-06T00:40:19;98984.16;;;6.24;89.53
20710;BME280;10516;51.518;9.864;2024-03-06T00:42:45;98993.53;;;6.26;89.34
20710;BME280;10516;51.518;9.864;2024-03-06T00:45:10;98990.97;;;5.88;90.27
20710;BME280;10516;51.518;9.864;2024-03-06T00:47:36;98995.59;;;5.62;92.64
20710;BME280;10516;51.518;9.864;2024-03-06T00:50:02;98986.66;;;5.94;91.34
20710;BME280;10516;51.518;9.864;2024-03-06T00:52:28;98996.19;;;6.26;89.04
20710;BME280;10516;51.518;9.864;2024-03-06T00:54:53;98997.53;;;6.35;88.53
20710;BME280;10516;51.518;9.864;2024-03-06T00:57:18;98996.88;;;6.15;88.23
20710;BME280;10516;51.518;9.864;2024-03-06T00:59:44;99004.94;;;6.27;89.23
20710;BME280;10516;51.518;9.864;2024-03-06T01:02:09;99007.25;;;6.41;88.71
20710;BME280;10516;51.518;9.864;2024-03-06T01:04:34;99006.28;;;6.36;88.27
20710;BME280;10516;51.518;9.864;2024-03-06T01:07:00;99001.78;;;6.36;88.19
20710;BME280;10516;51.518;9.864;2024-03-06T01:09:25;98994.59;;;6.43;87.44
20710;BME280;10516;51.518;9.864;2024-03-06T01:11:52;99003.13;;;6.45;87.62
20710;BME280;10516;51.518;9.864;2024-03-06T01:14:18;99004.63;;;5.85;88.08
20710;BME280;10516;51.518;9.864;2024-03-06T01:16:43;99000.31;;;5.91;89.96
20710;BME280;10516;51.518;9.864;2024-03-06T01:19:08;99013.91;;;6.26;89.00
20710;BME280;10516;51.518;9.864;2024-03-06T01:21:34;99016.84;;;6.18;88.25
20710;BME280;10516;51.518;9.864;2024-03-06T01:24:00;99019.16;;;6.07;88.38
20710;BME280;10516;51.518;9.864;2024-03-06T01:26:26;99020.53;;;6.41;88.05
20710;BME280;10516;51.518;9.864;2024-03-06T01:28:51;99007.34;;;6.03;87.54
20710;BME280;10516;51.518;9.864;2024-03-06T01:31:17;99008.88;;;6.42;87.79
20710;BME280;10516;51.518;9.864;2024-03-06T01:33:42;99011.97;;;6.15;87.93
20710;BME280;10516;51.518;9.864;2024-03-06T01:36:07;99007.97;;;6.30;88.00
20710;BME280;10516;51.518;9.864;2024-03-06T01:38:33;99015.59;;;6.20;87.58
20710;BME280;10516;51.518;9.864;2024-03-06T01:40:58;98998.16;;;5.44;90.54
20710;BME280;10516;51.518;9.864;2024-03-06T01:43:25;99006.72;;;5.70;91.06
20710;BME280;10516;51.518;9.864;2024-03-06T01:45:52;99012.63;;;6.35;88.59
20710;BME280;10516;51.518;9.864;2024-03-06T01:48:26;99008.81;;;6.49;87.53
20710;BME280;10516;51.518;9.864;2024-03-06T01:50:54;99015.56;;;6.45;86.96
20710;BME280;10516;51.518;9.864;2024-03-06T01:53:20;98999.66;;;6.27;87.16
20710;BME280;10516;51.518;9.864;2024-03-06T01:55:47;99027.81;;;6.46;87.82
20710;BME280;10516;51.518;9.864;2024-03-06T01:58:13;99031.50;;;6.45;86.67
20710;BME280;10516;51.518;9.864;2024-03-06T02:00:39;99026.56;;;6.24;87.84
20710;BME280;10516;51.518;9.864;2024-03-06T02:03:05;99029.81;;;6.26;87.34
20710;BME280;10516;51.518;9.864;2024-03-06T02:05:32;99028.97;;;5.69;89.01
20710;BME280;10516;51.518;9.864;2024-03-06T02:07:58;99012.16;;;5.06;91.32
20710;BME280;10516;51.518;9.864;2024-03-06T02:10:27;99025.28;;;5.32;92.57
20710;BME280;10516;51.518;9.864;2024-03-06T02:12:54;99007.47;;;5.90;90.48
20710;BME280;10516;51.518;9.864;2024-03-06T02:15:20;99026.34;;;6.00;89.88
20710;BME280;10516;51.518;9.864;2024-03-06T02:17:45;99020.38;;;6.05;88.61
20710;BME280;10516;51.518;9.864;2024-03-06T02:20:11;99029.00;;;6.25;88.85
20710;BME280;10516;51.518;9.864;2024-03-06T02:22:40;99019.91;;;6.15;87.90
20710;BME280;10516;51.518;9.864;2024-03-06T02:25:06;99031.22;;;6.03;88.76
20710;BME280;10516;51.518;9.864;2024-03-06T02:27:32;99039.69;;;6.12;88.25
20710;BME280;10516;51.518;9.864;2024-03-06T02:29:57;99044.09;;;6.25;88.13
20710;BME280;10516;51.518;9.864;2024-03-06T02:32:23;99040.94;;;6.10;88.03
20710;BME280;10516;51.518;9.864;2024-03-06T02:34:49;99035.53;;;6.23;87.34
20710;BME280;10516;51.518;9.864;2024-03-06T02:37:15;99033.94;;;6.22;87.48
20710;BME280;10516;51.518;9.864;2024-03-06T02:39:40;99030.75;;;6.13;87.40
20710;BME280;10516;51.518;9.864;2024-03-06T02:42:06;99040.38;;;6.01;87.21
20710;BME280;10516;51.518;9.864;2024-03-06T02:44:32;99045.91;;;5.99;88.26
20710;BME280;10516;51.518;9.864;2024-03-06T02:46:58;99049.34;;;6.07;88.51
20710;BME280;10516;51.518;9.864;2024-03-06T02:49:24;99045.41;;;6.16;87.83
20710;BME280;10516;51.518;9.864;2024-03-06T02:51:50;99042.94;;;5.89;88.04
20710;BME280;10516;51.518;9.864;2024-03-06T02:54:15;99046.59;;;5.88;88.42
20710;BME280;10516;51.518;9.864;2024-03-06T02:56:40;99041.53;;;5.87;88.88
20710;BME280;10516;51.518;9.864;2024-03-06T02:59:06;99034.00;;;5.33;88.51
20710;BME280;10516;51.518;9.864;2024-03-06T03:01:31;99050.13;;;5.69;89.23
20710;BME280;10516;51.518;9.864;2024-03-06T03:03:57;99047.50;;;6.07;87.93
20710;BME280;10516;51.518;9.864;2024-03-06T03:06:22;99050.34;;;6.05;88.26
20710;BME280;10516;51.518;9.864;2024-03-06T03:08:49;99050.09;;;5.76;87.80
20710;BME280;10516;51.518;9.864;2024-03-06T03:11:14;99054.16;;;5.85;88.09
20710;BME280;10516;51.518;9.864;2024-03-06T03:13:41;99043.28;;;5.55;90.06
20710;BME280;10516;51.518;9.864;2024-03-06T03:16:06;99050.31;;;5.37;90.00
20710;BME280;10516;51.518;9.864;2024-03-06T03:18:32;99051.97;;;5.18;90.23
20710;BME280;10516;51.518;9.864;2024-03-06T03:20:57;99052.56;;;5.71;89.27
20710;BME280;10516;51.518;9.864;2024-03-06T03:23:23;99067.59;;;5.77;89.02
20710;BME280;10516;51.518;9.864;2024-03-06T03:25:48;99048.38;;;5.94;87.99
20710;BME280;10516;51.518;9.864;2024-03-06T03:28:14;99069.22;;;5.84;88.51
20710;BME280;10516;51.518;9.864;2024-03-06T03:30:42;99074.41;;;6.04;88.48
20710;BME280;10516;51.518;9.864;2024-03-06T03:33:09;99072.59;;;6.04;87.34
20710;BME280;10516;51.518;9.864;2024-03-06T03:35:34;99068.41;;;5.84;87.80
20710;BME280;10516;51.518;9.864;2024-03-06T03:38:00;99080.56;;;5.54;89.83
20710;BME280;10516;51.518;9.864;2024-03-06T03:40:25;99068.31;;;5.59;88.73
20710;BME280;10516;51.518;9.864;2024-03-06T03:42:50;99080.06;;;5.25;89.41
20710;BME280;10516;51.518;9.864;2024-03-06T03:45:16;99073.34;;;5.74;89.72
20710;BME280;10516;51.518;9.864;2024-03-06T03:47:42;99082.09;;;6.12;88.19
20710;BME280;10516;51.518;9.864;2024-03-06T03:50:08;99073.34;;;5.74;87.45
20710;BME280;10516;51.518;9.864;2024-03-06T03:52:34;99078.06;;;6.03;88.23
20710;BME280;10516;51.518;9.864;2024-03-06T03:54:59;99075.16;;;6.18;87.48
20710;BME280;10516;51.518;9.864;2024-03-06T03:57:24;99076.59;;;6.14;86.63
20710;BME280;10516;51.518;9.864;2024-03-06T03:59:50;99078.06;;;5.65;87.73
20710;BME280;10516;51.518;9.864;2024-03-06T04:02:16;99086.97;;;5.77;88.36
20710;BME280;10516;51.518;9.864;2024-03-06T04:04:42;99085.88;;;5.98;88.87
20710;BME280;10516;51.518;9.864;2024-03-06T04:07:07;99086.75;;;5.79;88.90
20710;BME280;10516;51.518;9.864;2024-03-06T04:09:32;99088.41;;;5.73;88.00
20710;BME280;10516;51.518;9.864;2024-03-06T04:12:02;99093.97;;;4.95;89.69
20710;BME280;10516;51.518;9.864;2024-03-06T04:14:27;99103.34;;;5.61;89.54
20710;BME280;10516;51.518;9.864;2024-03-06T04:16:52;99090.25;;;5.73;89.42
20710;BME280;10516;51.518;9.864;2024-03-06T04:19:18;99097.53;;;5.26;89.33
20710;BME280;10516;51.518;9.864;2024-03-06T04:21:44;99088.47;;;5.60;89.07
20710;BME280;10516;51.518;9.864;2024-03-06T04:24:09;99097.13;;;5.87;88.66
20710;BME280;10516;51.518;9.864;2024-03-06T04:26:35;99096.59;;;6.10;87.55
20710;BME280;10516;51.518;9.864;2024-03-06T04:29:00;99107.09;;;6.23;86.79
20710;BME280;10516;51.518;9.864;2024-03-06T04:31:26;99093.34;;;6.07;86.83
20710;BME280;10516;51.518;9.864;2024-03-06T04:33:51;99107.84;;;5.98;87.33
20710;BME280;10516;51.518;9.864;2024-03-06T04:36:17;99108.53;;;5.94;86.08
20710;BME280;10516;51.518;9.864;2024-03-06T04:38:42;99109.13;;;5.96;87.06
20710;BME280;10516;51.518;9.864;2024-03-06T04:41:08;99110.78;;;5.84;88.00
20710;BME280;10516;51.518;9.864;2024-03-06T04:43:33;99104.09;;;5.24;88.08
20710;BME280;10516;51.518;9.864;2024-03-06T04:45:59;99115.66;;;5.36;89.67
20710;BME280;10516;51.518;9.864;2024-03-06T04:48:24;99115.75;;;5.67;89.20
20710;BME280;10516;51.518;9.864;2024-03-06T04:50:49;99129.75;;;5.10;89.24
20710;BME280;10516;51.518;9.864;2024-03-06T04:53:15;99123.97;;;5.40;88.97
20710;BME280;10516;51.518;9.864;2024-03-06T04:55:40;99120.69;;;5.51;89.57
20710;BME280;10516;51.518;9.864;2024-03-06T04:58:06;99131.38;;;5.05;89.50
20710;BME280;10516;51.518;9.864;2024-03-06T05:00:32;99130.94;;;5.27;88.91
20710;BME280;10516;51.518;9.864;2024-03-06T05:02:57;99136.28;;;5.85;88.37
20710;BME280;10516;51.518;9.864;2024-03-06T05:05:22;99130.28;;;6.02;87.28
20710;BME280;10516;51.518;9.864;2024-03-06T05:07:48;99134.53;;;5.46;87.39
20710;BME280;10516;51.518;9.864;2024-03-06T05:10:13;99139.72;;;5.79;89.46
20710;BME280;10516;51.518;9.864;2024-03-06T05:12:40;99136.56;;;5.44;87.94
20710;BME280;10516;51.518;9.864;2024-03-06T05:15:06;99141.84;;;5.57;88.25
20710;BME280;10516;51.518;9.864;2024-03-06T05:17:33;99139.53;;;4.90;89.46
20710;BME280;10516;51.518;9.864;2024-03-06T05:19:59;99146.84;;;5.08;89.93
20710;BME280;10516;51.518;9.864;2024-03-06T05:22:24;99137.13;;;4.89;91.04
20710;BME280;10516;51.518;9.864;2024-03-06T05:24:51;99155.59;;;4.36;90.27
20710;BME280;10516;51.518;9.864;2024-03-06T05:27:18;99146.81;;;5.27;91.40
20710;BME280;10516;51.518;9.864;2024-03-06T05:29:43;99150.66;;;5.38;89.84
20710;BME280;10516;51.518;9.864;2024-03-06T05:32:09;99150.31;;;5.02;88.57
20710;BME280;10516;51.518;9.864;2024-03-06T05:34:35;99150.72;;;4.86;89.58
20710;BME280;10516;51.518;9.864;2024-03-06T05:37:01;99161.13;;;5.71;88.46
20710;BME280;10516;51.518;9.864;2024-03-06T05:39:29;99165.41;;;5.78;88.12
20710;BME280;10516;51.518;9.864;2024-03-06T05:41:55;99170.06;;;5.89;87.06
20710;BME280;10516;51.518;9.864;2024-03-06T05:44:20;99171.13;;;5.69;87.76
20710;BME280;10516;51.518;9.864;2024-03-06T05:46:46;99170.16;;;5.63;87.11
20710;BME280;10516;51.518;9.864;2024-03-06T05:49:12;99171.91;;;5.89;87.74
20710;BME280;10516;51.518;9.864;2024-03-06T05:51:38;99180.22;;;5.92;87.38
20710;BME280;10516;51.518;9.864;2024-03-06T05:54:04;99178.72;;;6.10;85.77
20710;BME280;10516;51.518;9.864;2024-03-06T05:56:31;99186.09;;;6.01;86.63
20710;BME280;10516;51.518;9.864;2024-03-06T05:58:56;99189.97;;;5.98;86.92
20710;BME280;10516;51.518;9.864;2024-03-06T06:01:22;99193.44;;;5.99;86.35
20710;BME280;10516;51.518;9.864;2024-03-06T06:03:48;99198.16;;;5.97;86.61
20710;BME280;10516;51.518;9.864;2024-03-06T06:06:17;99207.16;;;5.89;86.67
20710;BME280;10516;51.518;9.864;2024-03-06T06:08:45;99197.19;;;5.78;87.59
20710;BME280;10516;51.518;9.864;2024-03-06T06:11:31;99196.72;;;5.94;86.50
20710;BME280;10516;51.518;9.864;2024-03-06T06:14:00;99205.53;;;5.88;86.51
20710;BME280;10516;51.518;9.864;2024-03-06T06:16:44;99199.63;;;5.86;86.78
20710;BME280;10516;51.518;9.864;2024-03-06T06:19:09;99208.56;;;5.92;86.62
20710;BME280;10516;51.518;9.864;2024-03-06T06:21:35;99207.44;;;5.42;86.86
20710;BME280;10516;51.518;9.864;2024-03-06T06:24:31;99211.03;;;5.87;87.06
20710;BME280;10516;51.518;9.864;2024-03-06T06:26:56;99221.13;;;5.13;87.56
20710;BME280;10516;51.518;9.864;2024-03-06T06:29:21;99204.03;;;5.22;89.67
20710;BME280;10516;51.518;9.864;2024-03-06T06:31:46;99212.06;;;5.73;88.63
20710;BME280;10516;51.518;9.864;2024-03-06T06:34:12;99223.97;;;4.92;88.02
20710;BME280;10516;51.518;9.864;2024-03-06T06:36:37;99218.63;;;5.51;88.50
20710;BME280;10516;51.518;9.864;2024-03-06T06:39:03;99229.06;;;5.13;89.54
20710;BME280;10516;51.518;9.864;2024-03-06T06:41:31;99218.22;;;5.47;88.94
20710;BME280;10516;51.518;9.864;2024-03-06T06:43:56;99232.41;;;5.92;87.53
20710;BME280;10516;51.518;9.864;2024-03-06T06:46:21;99241.16;;;5.92;86.54
20710;BME280;10516;51.518;9.864;2024-03-06T06:48:47;99250.53;;;5.82;86.58
20710;BME280;10516;51.518;9.864;2024-03-06T06:51:14;99258.16;;;5.26;87.29
20710;BME280;10516;51.518;9.864;2024-03-06T06:53:39;99247.78;;;5.05;89.97
20710;BME280;10516;51.518;9.864;2024-03-06T06:56:07;99260.38;;;4.90;89.01
20710;BME280;10516;51.518;9.864;2024-03-06T06:58:33;99258.75;;;4.82;90.20
20710;BME280;10516;51.518;9.864;2024-03-06T07:00:58;99268.53;;;5.08;89.78
20710;BME280;10516;51.518;9.864;2024-03-06T07:03:24;99271.38;;;4.87;90.54
20710;BME280;10516;51.518;9.864;2024-03-06T07:05:54;99273.22;;;4.99;90.25
20710;BME280;10516;51.518;9.864;2024-03-06T07:08:20;99260.97;;;4.72;90.60
20710;BME280;10516;51.518;9.864;2024-03-06T07:10:46;99270.78;;;5.04;90.16
20710;BME280;10516;51.518;9.864;2024-03-06T07:13:11;99287.97;;;4.61;89.08
20710;BME280;10516;51.518;9.864;2024-03-06T07:15:37;99293.31;;;4.87;90.75
20710;BME280;10516;51.518;9.864;2024-03-06T07:18:02;99291.75;;;5.19;90.02
20710;BME280;10516;51.518;9.864;2024-03-06T07:20:28;99297.44;;;5.09;87.41
20710;BME280;10516;51.518;9.864;2024-03-06T07:22:54;99272.75;;;4.70;89.90
20710;BME280;10516;51.518;9.864;2024-03-06T07:25:19;99295.00;;;5.21;89.35
20710;BME280;10516;51.518;9.864;2024-03-06T07:27:45;99305.50;;;4.69;88.21
20710;BME280;10516;51.518;9.864;2024-03-06T07:30:11;99307.50;;;4.53;90.36
20710;BME280;10516;51.518;9.864;2024-03-06T07:32:36;99310.63;;;4.90;90.34
20710;BME280;10516;51.518;9.864;2024-03-06T07:35:02;99310.88;;;5.14;89.62
20710;BME280;10516;51.518;9.864;2024-03-06T07:37:27;99312.63;;;4.75;87.36
20710;BME280;10516;51.518;9.864;2024-03-06T07:39:53;99312.47;;;5.02;89.76
20710;BME280;10516;51.518;9.864;2024-03-06T07:42:18;99327.16;;;5.18;89.82
20710;BME280;10516;51.518;9.864;2024-03-06T07:44:43;99316.97;;;5.02;87.64
20710;BME280;10516;51.518;9.864;2024-03-06T07:47:09;99330.63;;;5.58;89.02
20710;BME280;10516;51.518;9.864;2024-03-06T07:49:34;99335.31;;;5.23;89.06
20710;BME280;10516;51.518;9.864;2024-03-06T07:52:00;99335.69;;;5.26;88.69
20710;BME280;10516;51.518;9.864;2024-03-06T07:54:25;99329.59;;;5.06;88.99
20710;BME280;10516;51.518;9.864;2024-03-06T07:56:50;99330.41;;;5.40;88.76
20710;BME280;10516;51.518;9.864;2024-03-06T07:59:16;99321.47;;;5.34;88.17
20710;BME280;10516;51.518;9.864;2024-03-06T08:01:43;99335.53;;;5.93;87.21
20710;BME280;10516;51.518;9.864;2024-03-06T08:04:08;99335.31;;;5.49;86.90
20710;BME280;10516;51.518;9.864;2024-03-06T08:06:34;99339.31;;;4.86;87.34
20710;BME280;10516;51.518;9.864;2024-03-06T08:09:02;99346.91;;;5.15;88.94
20710;BME280;10516;51.518;9.864;2024-03-06T08:11:28;99351.41;;;5.35;87.77
20710;BME280;10516;51.518;9.864;2024-03-06T08:13:57;99339.78;;;5.36;87.99
20710;BME280;10516;51.518;9.864;2024-03-06T08:16:23;99347.69;;;5.03;86.86
20710;BME280;10516;51.518;9.864;2024-03-06T08:18:48;99351.59;;;5.85;86.75
20710;BME280;10516;51.518;9.864;2024-03-06T08:21:14;99347.69;;;6.07;86.36
20710;BME280;10516;51.518;9.864;2024-03-06T08:23:39;99348.31;;;5.83;86.20
20710;BME280;10516;51.518;9.864;2024-03-06T08:26:05;99353.63;;;5.70;85.50
20710;BME280;10516;51.518;9.864;2024-03-06T08:28:30;99359.13;;;5.82;86.83
20710;BME280;10516;51.518;9.864;2024-03-06T08:30:56;99343.47;;;6.00;85.34
20710;BME280;10516;51.518;9.864;2024-03-06T08:33:21;99343.47;;;5.87;84.76
20710;BME280;10516;51.518;9.864;2024-03-06T08:35:47;99366.69;;;6.04;85.38
20710;BME280;10516;51.518;9.864;2024-03-06T08:38:13;99360.75;;;6.22;84.74
20710;BME280;10516;51.518;9.864;2024-03-06T08:40:38;99366.25;;;6.07;85.01
20710;BME280;10516;51.518;9.864;2024-03-06T08:43:04;99368.09;;;6.14;84.78
20710;BME280;10516;51.518;9.864;2024-03-06T08:45:29;99373.19;;;5.82;85.50
20710;BME280;10516;51.518;9.864;2024-03-06T08:47:54;99372.16;;;6.10;85.75
20710;BME280;10516;51.518;9.864;2024-03-06T08:50:20;99375.63;;;5.45;86.15
20710;BME280;10516;51.518;9.864;2024-03-06T08:52:46;99377.81;;;5.02;86.88
20710;BME280;10516;51.518;9.864;2024-03-06T08:55:12;99381.72;;;5.25;87.11
20710;BME280;10516;51.518;9.864;2024-03-06T08:57:38;99384.16;;;5.33;85.77
20710;BME280;10516;51.518;9.864;2024-03-06T09:00:04;99387.66;;;5.47;86.84
20710;BME280;10516;51.518;9.864;2024-03-06T09:02:33;99390.31;;;5.99;86.51
20710;BME280;10516;51.518;9.864;2024-03-06T09:04:59;99396.00;;;5.64;86.12
20710;BME280;10516;51.518;9.864;2024-03-06T09:07:25;99378.69;;;5.35;85.30
20710;BME280;10516;51.518;9.864;2024-03-06T09:09:50;99392.75;;;5.94;86.59
20710;BME280;10516;51.518;9.864;2024-03-06T09:12:19;99396.00;;;5.57;84.52
20710;BME280;10516;51.518;9.864;2024-03-06T09:14:44;99387.28;;;6.09;85.32
20710;BME280;10516;51.518;9.864;2024-03-06T09:17:10;99387.66;;;6.06;84.54
20710;BME280;10516;51.518;9.864;2024-03-06T09:19:38;99403.75;;;6.31;84.38
20710;BME280;10516;51.518;9.864;2024-03-06T09:22:03;99400.81;;;6.52;83.20
20710;BME280;10516;51.518;9.864;2024-03-06T09:24:29;99406.66;;;6.73;81.82
20710;BME280;10516;51.518;9.864;2024-03-06T09:26:54;99407.91;;;6.64;82.30
20710;BME280;10516;51.518;9.864;2024-03-06T09:29:20;99415.50;;;6.54;81.46
20710;BME280;10516;51.518;9.864;2024-03-06T09:31:46;99397.63;;;6.88;80.90
20710;BME280;10516;51.518;9.864;2024-03-06T09:34:13;99398.28;;;6.76;80.80
20710;BME280;10516;51.518;9.864;2024-03-06T09:36:40;99396.72;;;6.56;81.51
20710;BME280;10516;51.518;9.864;2024-03-06T09:39:05;99412.00;;;6.60;81.42
20710;BME280;10516;51.518;9.864;2024-03-06T09:41:33;99412.97;;;6.86;80.47
20710;BME280;10516;51.518;9.864;2024-03-06T09:43:59;99415.06;;;6.64;81.05
20710;BME280;10516;51.518;9.864;2024-03-06T09:46:25;99419.09;;;6.73;80.26
20710;BME280;10516;51.518;9.864;2024-03-06T09:48:52;99424.63;;;6.71;81.36
20710;BME280;10516;51.518;9.864;2024-03-06T09:51:18;99417.09;;;6.62;81.89
20710;BME280;10516;51.518;9.864;2024-03-06T09:53:46;99419.63;;;6.95;80.09
20710;BME280;10516;51.518;9.864;2024-03-06T09:56:15;99431.47;;;6.35;78.38
20710;BME280;10516;51.518;9.864;2024-03-06T09:58:40;99436.81;;;5.95;79.35
20710;BME280;10516;51.518;9.864;2024-03-06T10:01:07;99446.34;;;6.23;79.73
20710;BME280;10516;51.518;9.864;2024-03-06T10:03:33;99445.09;;;5.79;79.73
20710;BME280;10516;51.518;9.864;2024-03-06T10:05:59;99448.59;;;6.19;81.70
20710;BME280;10516;51.518;9.864;2024-03-06T10:08:25;99444.09;;;5.80;80.03
20710;BME280;10516;51.518;9.864;2024-03-06T10:10:52;99446.91;;;5.53;79.68
20710;BME280;10516;51.518;9.864;2024-03-06T10:13:17;99434.06;;;5.43;80.20
20710;BME280;10516;51.518;9.864;2024-03-06T10:15:56;99449.38;;;6.46;82.82
20710;BME280;10516;51.518;9.864;2024-03-06T10:18:26;99435.03;;;6.66;81.81
20710;BME280;10516;51.518;9.864;2024-03-06T10:20:52;99437.81;;;5.94;79.19
20710;BME280;10516;51.518;9.864;2024-03-06T10:23:18;99460.59;;;6.41;80.66
20710;BME280;10516;51.518;9.864;2024-03-06T10:25:44;99453.47;;;5.76;79.57
20710;BME280;10516;51.518;9.864;2024-03-06T10:28:12;99456.97;;;5.90;81.03
20710;BME280;10516;51.518;9.864;2024-03-06T10:30:39;99458.38;;;6.19;80.41
20710;BME280;10516;51.518;9.864;2024-03-06T10:33:09;99469.41;;;6.29;81.35
20710;BME280;10516;51.518;9.864;2024-03-06T10:35:39;99473.06;;;6.28;79.96
20710;BME280;10516;51.518;9.864;2024-03-06T10:38:05;99473.88;;;6.22;78.63
20710;BME280;10516;51.518;9.864;2024-03-06T10:40:33;99471.63;;;6.05;78.97
20710;BME280;10516;51.518;9.864;2024-03-06T10:42:59;99475.94;;;6.20;79.97
20710;BME280;10516;51.518;9.864;2024-03-06T10:45:34;99465.31;;;6.26;78.83
20710;BME280;10516;51.518;9.864;2024-03-06T10:48:05;99473.06;;;6.21;77.86
20710;BME280;10516;51.518;9.864;2024-03-06T10:50:32;99470.63;;;6.33;79.01
20710;BME280;10516;51.518;9.864;2024-03-06T10:52:58;99471.00;;;6.43;77.16
20710;BME280;10516;51.518;9.864;2024-03-06T10:55:25;99471.44;;;6.14;77.54
20710;BME280;10516;51.518;9.864;2024-03-06T10:57:54;99475.09;;;6.26;80.09
20710;BME280;10516;51.518;9.864;2024-03-06T11:00:22;99473.81;;;6.74;79.91
20710;BME280;10516;51.518;9.864;2024-03-06T11:02:48;99468.91;;;6.71;77.50
20710;BME280;10516;51.518;9.864;2024-03-06T11:05:15;99466.56;;;7.01;79.83
20710;BME280;10516;51.518;9.864;2024-03-06T11:07:41;99470.06;;;7.39;79.91
20710;BME280;10516;51.518;9.864;2024-03-06T11:10:07;99470.31;;;7.69;78.49
20710;BME280;10516;51.518;9.864;2024-03-06T11:12:37;99467.69;;;7.62;77.90
20710;BME280;10516;51.518;9.864;2024-03-06T11:15:13;99466.75;;;7.43;76.78
20710;BME280;10516;51.518;9.864;2024-03-06T11:17:39;99459.28;;;7.27;73.63
20710;BME280;10516;51.518;9.864;2024-03-06T11:28:10;99480.63;;;7.83;77.15
20710;BME280;10516;51.518;9.864;2024-03-06T11:31:05;99482.91;;;7.80;76.00
20710;BME280;10516;51.518;9.864;2024-03-06T11:33:40;99488.72;;;7.95;76.83
20710;BME280;10516;51.518;9.864;2024-03-06T11:36:35;99478.34;;;7.55;73.08
20710;BME280;10516;51.518;9.864;2024-03-06T11:39:04;99473.56;;;7.33;73.24
20710;BME280;10516;51.518;9.864;2024-03-06T11:44:14;99476.84;;;7.66;72.26
20710;BME280;10516;51.518;9.864;2024-03-06T11:46:50;99473.16;;;7.98;75.40
20710;BME280;10516;51.518;9.864;2024-03-06T11:49:23;99471.84;;;8.07;74.05
20710;BME280;10516;51.518;9.864;2024-03-06T11:51:53;99461.91;;;7.96;73.36
20710;BME280;10516;51.518;9.864;2024-03-06T11:54:19;99463.47;;;7.79;74.50
20710;BME280;10516;51.518;9.864;2024-03-06T11:56:56;99477.81;;;8.34;75.70
20710;BME280;10516;51.518;9.864;2024-03-06T12:01:50;99461.28;;;7.70;72.51
20710;BME280;10516;51.518;9.864;2024-03-06T12:04:15;99477.13;;;7.83;71.45
20710;BME280;10516;51.518;9.864;2024-03-06T12:06:41;99468.75;;;8.10;74.93
20710;BME280;10516;51.518;9.864;2024-03-06T12:09:06;99463.09;;;7.44;71.64
20710;BME280;10516;51.518;9.864;2024-03-06T12:11:36;99474.47;;;7.51;72.31
20710;BME280;10516;51.518;9.864;2024-03-06T12:14:02;99476.25;;;7.64;72.75
20710;BME280;10516;51.518;9.864;2024-03-06T12:16:28;99476.19;;;8.02;73.26
20710;BME280;10516;51.518;9.864;2024-03-06T12:18:57;99468.19;;;8.02;75.18
20710;BME280;10516;51.518;9.864;2024-03-06T12:21:31;99475.94;;;8.10;72.85
20710;BME280;10516;51.518;9.864;2024-03-06T12:24:09;99478.50;;;7.92;71.81
20710;BME280;10516;51.518;9.864;2024-03-06T12:26:36;99467.28;;;7.58;71.71
20710;BME280;10516;51.518;9.864;2024-03-06T12:29:09;99477.78;;;7.78;72.83
20710;BME280;10516;51.518;9.864;2024-03-06T12:31:36;99479.94;;;7.63;71.91
20710;BME280;10516;51.518;9.864;2024-03-06T12:34:03;99472.59;;;7.90;73.12
20710;BME280;10516;51.518;9.864;2024-03-06T12:36:28;99475.38;;;8.01;72.19
20710;BME280;10516;51.518;9.864;2024-03-06T12:39:02;99471.09;;;8.25;73.20
20710;BME280;10516;51.518;9.864;2024-03-06T12:41:29;99461.47;;;8.24;73.10
20710;BME280;10516;51.518;9.864;2024-03-06T12:43:55;99471.72;;;9.06;75.07
20710;BME280;10516;51.518;9.864;2024-03-06T12:46:21;99464.91;;;9.10;73.49
20710;BME280;10516;51.518;9.864;2024-03-06T12:48:47;99469.56;;;9.15;74.80
20710;BME280;10516;51.518;9.864;2024-03-06T12:51:12;99462.97;;;9.47;73.64
20710;BME280;10516;51.518;9.864;2024-03-06T12:53:38;99461.97;;;9.48;73.03
20710;BME280;10516;51.518;9.864;2024-03-06T12:56:03;99458.28;;;9.31;70.82
20710;BME280;10516;51.518;9.864;2024-03-06T12:58:29;99461.53;;;9.33;70.93
20710;BME280;10516;51.518;9.864;2024-03-06T13:01:00;99467.28;;;9.48;71.69
20710;BME280;10516;51.518;9.864;2024-03-06T13:03:26;99466.31;;;9.13;69.61
20710;BME280;10516;51.518;9.864;2024-03-06T13:05:52;99465.06;;;8.97;69.63
20710;BME280;10516;51.518;9.864;2024-03-06T13:08:17;99454.59;;;9.32;72.70
20710;BME280;10516;51.518;9.864;2024-03-06T13:10:43;99461.56;;;9.15;69.35
20710;BME280;10516;51.518;9.864;2024-03-06T13:13:08;99460.47;;;9.04;70.51
20710;BME280;10516;51.518;9.864;2024-03-06T13:15:34;99450.25;;;9.01;69.48
20710;BME280;10516;51.518;9.864;2024-03-06T13:18:00;99455.59;;;9.01;70.18
20710;BME280;10516;51.518;9.864;2024-03-06T13:20:35;99454.19;;;8.98;69.32